createdAt,value
2023-03-17T00:01:56.991Z,10.25
2023-03-17T00:04:30.554Z,10.30
2023-03-17T00:07:01.261Z,10.28
2023-03-17T00:09:29.331Z,10.24
2023-03-17T00:11:58.008Z,10.23
2023-03-17T00:14:25.568Z,10.25
2023-03-17T00:16:53.245Z,10.27
2023-03-17T00:19:28.828Z,10.31
2023-03-17T00:21:56.301Z,10.32
2023-03-17T00:24:23.503Z,10.35
2023-03-17T00:26:50.506Z,10.33
2023-03-17T00:29:17.337Z,10.33
2023-03-17T00:31:45.841Z,10.30
2023-03-17T00:34:18.326Z,10.32
2023-03-17T00:36:49.811Z,10.36
2023-03-17T00:44:13.209Z,10.43
2023-03-17T00:46:41.905Z,10.45
2023-03-17T00:49:20.058Z,10.42
2023-03-17T00:51:47.439Z,10.39
2023-03-17T00:54:16.343Z,10.39
2023-03-17T00:56:44.372Z,10.33
2023-03-17T00:59:37.376Z,10.28
2023-03-17T01:02:04.702Z,10.20
2023-03-17T01:04:32.249Z,10.19
2023-03-17T01:07:00.109Z,10.20
2023-03-17T01:09:31.752Z,10.24
2023-03-17T01:12:01.714Z,10.26
2023-03-17T01:14:29.469Z,10.30
2023-03-17T01:16:57.190Z,10.30
2023-03-17T01:19:28.662Z,10.27
2023-03-17T01:21:57.814Z,10.27
2023-03-17T01:24:36.893Z,10.28
2023-03-17T01:27:06.898Z,10.30
2023-03-17T01:29:42.210Z,10.31
2023-03-17T01:32:16.493Z,10.25
2023-03-17T01:34:45.187Z,10.18
2023-03-17T01:37:15.408Z,10.10
2023-03-17T01:39:48.731Z,10.02
2023-03-17T01:42:39.858Z,10.03
2023-03-17T01:45:47.235Z,10.04
2023-03-17T01:48:16.636Z,10.00
2023-03-17T01:50:56.790Z,9.99
2023-03-17T01:53:24.550Z,9.98
2023-03-17T01:55:59.587Z,10.00
2023-03-17T01:58:28.052Z,10.02
2023-03-17T02:00:57.573Z,10.09
2023-03-17T02:03:33.717Z,10.11
2023-03-17T02:06:10.405Z,10.04
2023-03-17T02:08:44.400Z,9.91
2023-03-17T02:11:11.935Z,9.85
2023-03-17T02:13:42.059Z,9.84
2023-03-17T02:16:16.052Z,9.73
2023-03-17T02:18:46.859Z,9.63
2023-03-17T02:21:35.754Z,9.63
2023-03-17T02:24:12.191Z,9.65
2023-03-17T02:26:39.819Z,9.62
2023-03-17T02:29:11.578Z,9.60
2023-03-17T02:31:44.926Z,9.55
2023-03-17T02:34:15.861Z,9.51
2023-03-17T02:36:45.015Z,9.49
2023-03-17T02:39:15.726Z,9.42
2023-03-17T02:41:46.450Z,9.36
2023-03-17T02:44:16.639Z,9.33
2023-03-17T02:46:46.526Z,9.25
2023-03-17T02:49:16.728Z,9.09
2023-03-17T02:51:54.805Z,9.01
2023-03-17T02:54:27.908Z,8.96
2023-03-17T02:56:55.183Z,8.93
2023-03-17T02:59:22.435Z,8.82
2023-03-17T03:01:50.884Z,8.76
2023-03-17T03:04:20.055Z,8.74
2023-03-17T03:06:47.795Z,8.74
2023-03-17T03:09:19.053Z,8.74
2023-03-17T03:12:01.982Z,8.73
2023-03-17T03:14:32.682Z,8.71
2023-03-17T03:17:01.686Z,8.72
2023-03-17T03:19:32.145Z,8.66
2023-03-17T03:22:03.286Z,8.62
2023-03-17T03:24:30.930Z,8.57
2023-03-17T03:27:01.239Z,8.52
2023-03-17T03:29:34.481Z,8.50
2023-03-17T03:32:10.258Z,8.47
2023-03-17T03:34:39.206Z,8.40
2023-03-17T03:37:09.109Z,8.33
2023-03-17T03:39:39.240Z,8.27
2023-03-17T03:42:39.878Z,8.22
2023-03-17T03:45:08.286Z,8.13
2023-03-17T03:47:38.182Z,8.10
2023-03-17T03:50:11.041Z,8.11
2023-03-17T03:52:39.422Z,8.09
2023-03-17T03:55:10.773Z,8.08
2023-03-17T03:57:38.609Z,8.07
2023-03-17T04:00:09.253Z,8.08
2023-03-17T04:02:47.055Z,8.05
2023-03-17T04:05:19.123Z,8.06
2023-03-17T04:07:55.349Z,8.02
2023-03-17T04:10:23.426Z,7.96
2023-03-17T04:12:51.339Z,7.93
2023-03-17T04:15:21.275Z,7.96
2023-03-17T04:17:49.009Z,7.99
2023-03-17T04:20:17.212Z,7.95
2023-03-17T04:22:45.487Z,7.95
2023-03-17T04:25:15.685Z,7.90
2023-03-17T04:27:43.395Z,7.82
2023-03-17T04:30:14.873Z,7.80
2023-03-17T04:32:42.161Z,7.79
2023-03-17T04:35:14.808Z,7.78
2023-03-17T04:37:45.584Z,7.75
2023-03-17T04:40:19.069Z,7.70
2023-03-17T04:42:49.211Z,7.67
2023-03-17T04:45:32.648Z,7.65
2023-03-17T04:47:59.957Z,7.62
2023-03-17T04:50:34.955Z,7.58
2023-03-17T04:53:07.120Z,7.51
2023-03-17T04:55:37.148Z,7.51
2023-03-17T04:58:06.806Z,7.53
2023-03-17T05:00:39.522Z,7.56
2023-03-17T05:03:24.042Z,7.58
2023-03-17T05:05:58.074Z,7.55
2023-03-17T05:08:28.941Z,7.49
2023-03-17T05:10:59.643Z,7.46
2023-03-17T05:13:38.112Z,7.48
2023-03-17T05:16:13.328Z,7.51
2023-03-17T05:18:47.299Z,7.48
2023-03-17T05:21:23.364Z,7.46
2023-03-17T05:23:51.003Z,7.47
2023-03-17T05:26:19.814Z,7.49
2023-03-17T05:28:46.775Z,7.52
2023-03-17T05:31:13.519Z,7.50
2023-03-17T05:33:45.636Z,7.49
2023-03-17T05:36:15.725Z,7.46
2023-03-17T05:38:45.898Z,7.41
2023-03-17T05:41:15.963Z,7.45
2023-03-17T05:43:47.713Z,7.48
2023-03-17T05:46:15.101Z,7.45
2023-03-17T05:48:45.468Z,7.44
2023-03-17T05:51:15.971Z,7.44
2023-03-17T05:53:46.080Z,7.46
2023-03-17T05:56:15.473Z,7.45
2023-03-17T05:58:42.444Z,7.43
2023-03-17T06:01:18.577Z,7.46
2023-03-17T06:03:50.291Z,7.49
2023-03-17T06:06:17.456Z,7.50
2023-03-17T06:08:46.885Z,7.52
2023-03-17T06:11:14.031Z,7.54
2023-03-17T06:13:42.160Z,7.49
2023-03-17T06:16:15.370Z,7.45
2023-03-17T06:18:48.102Z,7.35
2023-03-17T06:21:15.533Z,7.29
2023-03-17T06:23:54.364Z,7.29
2023-03-17T06:26:25.482Z,7.21
2023-03-17T06:29:28.983Z,7.22
2023-03-17T06:32:19.304Z,7.22
2023-03-17T06:34:59.918Z,7.17
2023-03-17T06:37:36.436Z,7.11
2023-03-17T06:40:04.539Z,7.20
2023-03-17T06:42:42.747Z,7.33
2023-03-17T06:45:10.520Z,7.36
2023-03-17T06:47:41.092Z,7.47
2023-03-17T06:50:13.184Z,7.56
2023-03-17T06:52:48.998Z,7.66
2023-03-17T06:55:29.860Z,7.80
2023-03-17T06:58:07.563Z,7.96
2023-03-17T07:00:38.985Z,8.09
2023-03-17T07:03:10.198Z,8.20
2023-03-17T07:05:40.865Z,8.29
2023-03-17T07:08:09.926Z,8.30
2023-03-17T07:10:37.406Z,8.31
2023-03-17T07:13:10.821Z,8.34
2023-03-17T07:15:42.863Z,8.46
2023-03-17T07:18:14.154Z,8.63
2023-03-17T07:20:44.384Z,8.75
2023-03-17T07:23:39.444Z,8.93
2023-03-17T07:26:08.796Z,9.00
2023-03-17T07:28:42.592Z,8.98
2023-03-17T07:31:14.530Z,9.04
2023-03-17T07:33:42.075Z,9.19
2023-03-17T07:36:10.793Z,9.32
2023-03-17T07:38:37.936Z,9.38
2023-03-17T07:41:10.095Z,9.47
2023-03-17T07:43:37.711Z,9.63
2023-03-17T07:46:07.679Z,9.80
2023-03-17T07:48:41.048Z,9.98
2023-03-17T07:51:21.208Z,10.13
2023-03-17T07:53:50.267Z,10.21
2023-03-17T07:56:17.980Z,10.27
2023-03-17T07:58:45.130Z,10.28
2023-03-17T08:01:12.059Z,10.35
2023-03-17T08:03:41.363Z,10.45
2023-03-17T08:06:09.006Z,10.54
2023-03-17T08:08:39.210Z,10.62
2023-03-17T08:11:09.586Z,10.72
2023-03-17T08:13:37.199Z,10.77
2023-03-17T08:16:11.144Z,10.81
2023-03-17T08:18:39.167Z,10.85
2023-03-17T08:21:06.781Z,10.85
2023-03-17T08:23:36.882Z,10.78
2023-03-17T08:26:10.242Z,10.62
2023-03-17T08:28:38.238Z,10.51
2023-03-17T08:31:15.522Z,10.45
2023-03-17T08:33:52.734Z,10.42
2023-03-17T08:36:21.260Z,10.46
2023-03-17T08:38:51.921Z,10.51
2023-03-17T08:41:27.102Z,10.62
2023-03-17T08:43:58.091Z,10.86
2023-03-17T08:46:30.429Z,11.13
2023-03-17T08:48:59.549Z,11.44
2023-03-17T08:51:37.392Z,11.86
2023-03-17T08:54:12.523Z,12.27
2023-03-17T08:56:42.650Z,12.31
2023-03-17T08:59:10.088Z,12.29
2023-03-17T09:01:42.980Z,12.35
2023-03-17T09:04:11.214Z,12.43
2023-03-17T09:06:42.317Z,12.60
2023-03-17T09:09:13.463Z,12.77
2023-03-17T09:11:41.568Z,12.99
2023-03-17T09:14:09.550Z,13.20
2023-03-17T09:16:37.713Z,13.47
2023-03-17T09:19:04.725Z,13.70
2023-03-17T09:21:32.043Z,13.79
2023-03-17T09:24:02.196Z,14.07
2023-03-17T09:26:29.558Z,14.21
2023-03-17T09:28:57.163Z,14.36
2023-03-17T09:31:24.171Z,14.78
2023-03-17T09:33:53.993Z,15.40
2023-03-17T09:36:20.936Z,15.69
2023-03-17T09:38:47.838Z,15.37
2023-03-17T09:41:24.147Z,15.51
2023-03-17T09:44:01.167Z,16.13
2023-03-17T09:46:37.546Z,17.14
2023-03-17T09:49:12.072Z,18.74
2023-03-17T09:51:39.058Z,21.01
2023-03-17T09:54:20.163Z,23.04
2023-03-17T09:56:54.512Z,24.05
2023-03-17T09:59:35.374Z,25.72
2023-03-17T10:02:27.121Z,26.67
2023-03-17T10:04:54.864Z,26.29
2023-03-17T10:07:37.676Z,25.75
2023-03-17T10:10:15.250Z,24.69
2023-03-17T10:12:54.809Z,24.94
2023-03-17T10:15:28.243Z,26.09
2023-03-17T10:17:56.786Z,27.19
2023-03-17T10:20:34.070Z,27.84
2023-03-17T10:23:04.970Z,29.35
2023-03-17T10:25:34.838Z,29.23
2023-03-17T10:28:28.462Z,28.65
2023-03-17T10:31:01.587Z,29.29
2023-03-17T10:33:33.238Z,31.05
2023-03-17T10:36:12.746Z,31.70
2023-03-17T10:38:41.069Z,31.85
2023-03-17T10:41:15.799Z,30.71
2023-03-17T10:53:11.480Z,28.88
2023-03-17T11:10:45.401Z,27.34
2023-03-17T11:13:18.989Z,27.01
2023-03-17T11:16:50.802Z,27.28
2023-03-17T11:28:33.532Z,27.39
2023-03-17T11:31:32.419Z,26.71
2023-03-17T11:34:34.237Z,26.19
2023-03-17T11:37:12.557Z,25.63
2023-03-17T11:40:01.239Z,25.45
2023-03-17T11:43:04.098Z,25.31
2023-03-17T11:45:55.459Z,25.16
2023-03-17T11:48:45.284Z,25.29
2023-03-17T11:51:50.748Z,25.71
2023-03-17T11:54:48.425Z,26.08
2023-03-17T11:57:32.753Z,26.11
2023-03-17T12:00:25.993Z,26.39
2023-03-17T12:03:03.253Z,26.20
2023-03-17T12:05:31.706Z,25.74
2023-03-17T12:08:24.697Z,25.29
2023-03-17T12:11:01.186Z,24.84
2023-03-17T12:13:57.875Z,23.57
2023-03-17T12:16:33.853Z,22.80
2023-03-17T12:19:19.042Z,22.49
2023-03-17T12:21:55.781Z,22.56
2023-03-17T12:24:32.081Z,22.35
2023-03-17T12:27:22.048Z,22.31
2023-03-17T12:30:00.547Z,21.98
2023-03-17T12:32:42.256Z,21.64
2023-03-17T12:35:15.677Z,21.78
2023-03-17T12:37:43.363Z,21.93
2023-03-17T12:40:25.182Z,21.57
2023-03-17T12:43:14.600Z,21.57
2023-03-17T12:46:16.816Z,21.41
2023-03-17T12:48:56.109Z,21.39
2023-03-17T12:51:44.908Z,21.55
2023-03-17T12:54:36.949Z,21.15
2023-03-17T12:57:17.876Z,20.71
2023-03-17T12:59:48.768Z,20.96
2023-03-17T13:02:21.874Z,21.22
2023-03-17T13:05:00.431Z,21.43
2023-03-17T13:07:34.914Z,21.59
2023-03-17T13:10:01.571Z,21.65
2023-03-17T13:12:45.183Z,21.58
2023-03-17T13:15:48.798Z,21.47
2023-03-17T13:18:16.234Z,21.33
2023-03-17T13:20:47.811Z,21.11
2023-03-17T13:23:16.949Z,21.03
2023-03-17T13:25:55.532Z,21.01
2023-03-17T13:28:34.900Z,21.06
2023-03-17T13:31:36.851Z,21.18
2023-03-17T13:34:17.983Z,21.25
2023-03-17T13:37:01.360Z,21.23
2023-03-17T13:40:13.191Z,21.14
2023-03-17T13:43:11.110Z,21.06
2023-03-17T13:45:39.801Z,21.00
2023-03-17T13:48:27.010Z,20.95
2023-03-17T13:50:58.834Z,20.79
2023-03-17T13:53:31.227Z,20.58
2023-03-17T13:56:23.829Z,20.38
2023-03-17T13:59:10.754Z,20.21
2023-03-17T14:01:43.715Z,20.06
2023-03-17T14:04:19.368Z,19.96
2023-03-17T14:06:48.177Z,19.91
2023-03-17T14:09:36.425Z,19.84
2023-03-17T14:12:17.888Z,19.84
2023-03-17T14:14:55.597Z,19.84
2023-03-17T14:17:42.782Z,19.90
2023-03-17T14:20:15.661Z,19.94
2023-03-17T14:22:46.242Z,20.00
2023-03-17T14:25:23.283Z,20.04
2023-03-17T14:27:54.191Z,19.99
2023-03-17T14:30:23.711Z,19.80
2023-03-17T14:33:06.458Z,19.83
2023-03-17T14:35:37.556Z,19.84
2023-03-17T14:38:19.112Z,19.87
2023-03-17T14:40:48.591Z,19.86
2023-03-17T14:43:16.362Z,19.83
2023-03-17T14:45:53.771Z,19.82
2023-03-17T14:48:27.862Z,19.77
2023-03-17T14:51:08.708Z,19.70
2023-03-17T14:53:40.684Z,19.60
2023-03-17T14:56:07.913Z,19.51
2023-03-17T14:58:45.985Z,19.26
2023-03-17T15:01:17.493Z,19.23
2023-03-17T15:04:07.938Z,19.18
2023-03-17T15:06:37.530Z,18.97
2023-03-17T15:09:34.495Z,18.86
2023-03-17T15:12:04.939Z,18.90
2023-03-17T15:14:41.026Z,18.96
2023-03-17T15:17:21.278Z,18.94
2023-03-17T15:19:51.449Z,18.83
2023-03-17T15:22:22.961Z,18.82
2023-03-17T15:25:21.837Z,18.72
2023-03-17T15:27:49.679Z,18.58
2023-03-17T15:30:17.901Z,18.55
2023-03-17T15:32:53.470Z,18.55
2023-03-17T15:35:20.468Z,18.65
2023-03-17T15:37:47.963Z,18.78
2023-03-17T15:40:15.757Z,18.85
2023-03-17T15:42:43.278Z,18.82
2023-03-17T15:45:18.250Z,18.85
2023-03-17T15:47:47.547Z,18.85
2023-03-17T15:50:19.170Z,18.86
2023-03-17T15:52:48.794Z,18.84
2023-03-17T15:55:25.994Z,18.79
2023-03-17T15:57:55.543Z,18.72
2023-03-17T16:00:25.444Z,18.67
2023-03-17T16:02:59.720Z,18.54
2023-03-17T16:05:31.210Z,18.38
2023-03-17T16:07:59.692Z,18.36
2023-03-17T16:10:30.274Z,18.36
2023-03-17T16:12:58.292Z,18.26
2023-03-17T16:15:31.926Z,18.24
2023-03-17T16:18:02.743Z,18.22
2023-03-17T16:20:43.742Z,18.13
2023-03-17T16:23:25.217Z,18.08
2023-03-17T16:25:53.988Z,17.99
2023-03-17T16:28:32.142Z,17.90
2023-03-17T16:31:01.610Z,17.81
2023-03-17T16:33:38.970Z,17.71
2023-03-17T16:36:12.099Z,17.66
2023-03-17T16:38:39.748Z,17.63
2023-03-17T16:41:15.514Z,17.57
2023-03-17T16:43:45.431Z,17.53
2023-03-17T16:46:14.486Z,17.50
2023-03-17T16:48:41.653Z,17.48
2023-03-17T16:51:09.041Z,17.45
2023-03-17T16:53:37.930Z,17.34
2023-03-17T16:56:13.102Z,17.15
2023-03-17T16:58:42.216Z,17.11
2023-03-17T17:01:16.588Z,17.13
2023-03-17T17:03:50.606Z,17.12
2023-03-17T17:06:20.119Z,17.10
2023-03-17T17:08:48.278Z,17.09
2023-03-17T17:11:17.915Z,17.10
2023-03-17T17:13:47.497Z,17.05
2023-03-17T17:16:34.629Z,16.98
2023-03-17T17:19:07.351Z,16.95
2023-03-17T17:21:34.402Z,16.95
2023-03-17T17:24:01.234Z,16.95
2023-03-17T17:26:28.301Z,16.94
2023-03-17T17:28:55.188Z,16.93
2023-03-17T17:31:32.032Z,16.89
2023-03-17T17:33:59.592Z,16.85
2023-03-17T17:36:27.174Z,16.79
2023-03-17T17:38:53.953Z,16.75
2023-03-17T17:41:22.456Z,16.73
2023-03-17T17:43:50.160Z,16.69
2023-03-17T17:46:20.708Z,16.66
2023-03-17T17:48:47.896Z,16.65
2023-03-17T17:51:15.391Z,16.64
2023-03-17T17:53:42.275Z,16.63
2023-03-17T17:56:14.830Z,16.62
2023-03-17T17:58:42.245Z,16.62
2023-03-17T18:01:14.349Z,16.60
2023-03-17T18:03:42.840Z,16.57
2023-03-17T18:06:10.214Z,16.55
2023-03-17T18:08:37.069Z,16.53
2023-03-17T18:11:03.949Z,16.53
2023-03-17T18:13:32.118Z,16.51
2023-03-17T18:15:59.170Z,16.47
2023-03-17T18:18:26.221Z,16.42
2023-03-17T18:20:54.342Z,16.40
2023-03-17T18:23:23.190Z,16.38
2023-03-17T18:25:50.218Z,16.37
2023-03-17T18:28:18.019Z,16.37
2023-03-17T18:30:45.064Z,16.37
2023-03-17T18:33:18.151Z,16.36
2023-03-17T18:35:49.355Z,16.38
2023-03-17T18:38:16.436Z,16.37
2023-03-17T18:40:43.612Z,16.37
2023-03-17T18:43:10.321Z,16.38
2023-03-17T18:45:37.041Z,16.37
2023-03-17T18:48:03.857Z,16.35
2023-03-17T18:50:30.773Z,16.35
2023-03-17T18:52:58.032Z,16.32
2023-03-17T18:55:25.004Z,16.28
2023-03-17T18:57:54.618Z,16.14
2023-03-17T19:00:21.922Z,16.03
2023-03-17T19:02:48.695Z,16.00
2023-03-17T19:05:16.244Z,15.93
2023-03-17T19:07:43.400Z,15.88
2023-03-17T19:10:12.353Z,15.83
2023-03-17T19:12:40.324Z,15.76
2023-03-17T19:15:08.750Z,15.75
2023-03-17T19:17:36.368Z,15.77
2023-03-17T19:20:03.299Z,15.75
2023-03-17T19:22:30.001Z,15.68
2023-03-17T19:24:56.740Z,15.65
2023-03-17T19:27:23.963Z,15.68
2023-03-17T19:29:51.149Z,15.66
2023-03-17T19:32:17.945Z,15.62
2023-03-17T19:34:47.666Z,15.55
2023-03-17T19:37:14.704Z,15.55
2023-03-17T19:39:44.162Z,15.55
2023-03-17T19:42:12.601Z,15.53
2023-03-17T19:44:40.229Z,15.52
2023-03-17T19:47:08.325Z,15.54
2023-03-17T19:49:37.409Z,15.55
2023-03-17T19:52:06.517Z,15.56
2023-03-17T19:54:33.872Z,15.54
2023-03-17T19:57:01.288Z,15.50
2023-03-17T19:59:28.379Z,15.43
2023-03-17T20:01:55.625Z,15.38
2023-03-17T20:04:24.003Z,15.32
2023-03-17T20:06:55.732Z,15.33
2023-03-17T20:09:27.285Z,15.35
2023-03-17T20:11:56.102Z,15.39
2023-03-17T20:14:23.887Z,15.34
2023-03-17T20:16:52.053Z,15.35
2023-03-17T20:19:19.368Z,15.39
2023-03-17T20:21:46.197Z,15.40
2023-03-17T20:24:14.778Z,15.46
2023-03-17T20:26:43.377Z,15.50
2023-03-17T20:29:12.839Z,15.52
2023-03-17T20:31:42.009Z,15.45
2023-03-17T20:34:10.102Z,15.38
2023-03-17T20:36:37.494Z,15.32
2023-03-17T20:39:06.021Z,15.27
2023-03-17T20:41:32.738Z,15.23
2023-03-17T20:43:59.455Z,15.20
2023-03-17T20:46:26.469Z,15.16
2023-03-17T20:48:58.996Z,15.13
2023-03-17T20:51:27.104Z,15.09
2023-03-17T20:53:54.971Z,15.04
2023-03-17T20:56:24.199Z,14.96
2023-03-17T20:58:53.291Z,14.93
2023-03-17T21:01:21.748Z,14.97
2023-03-17T21:03:49.734Z,14.98
2023-03-17T21:06:17.007Z,15.00
2023-03-17T21:08:46.179Z,14.98
2023-03-17T21:11:19.563Z,14.94
2023-03-17T21:13:46.725Z,14.91
2023-03-17T21:16:21.406Z,14.94
2023-03-17T21:18:48.962Z,14.95
2023-03-17T21:21:17.532Z,14.99
2023-03-17T21:23:45.090Z,15.04
2023-03-17T21:26:12.746Z,15.11
2023-03-17T21:28:41.573Z,15.17
2023-03-17T21:31:09.948Z,15.10
2023-03-17T21:33:37.134Z,15.05
2023-03-17T21:36:06.915Z,14.99
2023-03-17T21:38:33.933Z,14.95
2023-03-17T21:41:39.733Z,14.92
2023-03-17T21:44:10.656Z,14.85
2023-03-17T21:46:38.559Z,14.86
2023-03-17T21:49:06.193Z,14.91
2023-03-17T21:51:35.068Z,14.93
2023-03-17T21:54:02.295Z,14.96
2023-03-17T21:56:29.789Z,15.00
2023-03-17T21:58:57.828Z,15.05
2023-03-17T22:01:28.545Z,15.11
2023-03-17T22:03:55.712Z,15.17
2023-03-17T22:06:23.045Z,15.20
2023-03-17T22:08:50.849Z,15.22
2023-03-17T22:11:19.616Z,15.22
2023-03-17T22:13:48.293Z,15.23
2023-03-17T22:16:17.363Z,15.21
2023-03-17T22:18:44.804Z,15.21
2023-03-17T22:21:13.637Z,15.20
2023-03-17T22:23:42.487Z,15.22
2023-03-17T22:26:18.646Z,15.16
2023-03-17T22:28:48.034Z,15.12
2023-03-17T22:31:22.177Z,15.13
2023-03-17T22:33:52.656Z,15.11
2023-03-17T22:36:19.899Z,15.14
2023-03-17T22:38:48.609Z,15.14
2023-03-17T22:41:22.081Z,15.19
2023-03-17T22:43:49.334Z,15.19
2023-03-17T22:46:17.934Z,15.22
2023-03-17T22:48:46.800Z,15.21
2023-03-17T22:51:17.273Z,15.18
2023-03-17T22:53:45.885Z,15.17
2023-03-17T22:56:14.902Z,15.15
2023-03-17T22:58:46.647Z,15.10
2023-03-17T23:01:16.794Z,15.09
2023-03-17T23:03:44.585Z,15.09
2023-03-17T23:06:13.302Z,15.11
2023-03-17T23:08:42.712Z,15.09
2023-03-17T23:11:17.476Z,15.11
2023-03-17T23:13:45.977Z,15.16
2023-03-17T23:16:13.664Z,15.19
2023-03-17T23:18:46.796Z,15.18
2023-03-17T23:21:28.078Z,15.22
2023-03-17T23:23:56.241Z,15.22
2023-03-17T23:26:23.654Z,15.25
2023-03-17T23:28:51.171Z,15.29
2023-03-17T23:31:23.091Z,15.28
2023-03-17T23:33:51.611Z,15.25
2023-03-17T23:36:19.969Z,15.20
2023-03-17T23:38:47.614Z,15.18
2023-03-17T23:41:18.619Z,15.18
2023-03-17T23:43:46.752Z,15.14
2023-03-17T23:46:14.849Z,15.14
2023-03-17T23:48:43.002Z,15.16
2023-03-17T23:51:14.455Z,15.17
2023-03-17T23:53:45.748Z,15.20
2023-03-17T23:56:18.789Z,15.12
2023-03-17T23:58:45.925Z,15.09
